Time;durP1;ratioP1;P1;durP2;ratioP2;P2;SDS_P1;SDS_P2;PMS_P1;PMS_P2;Temp;Humidity;BMP_temperature;BMP_pressure;BME280_temperature;BME280_humidity;BME280_pressure;Samples;Min_cycle;Max_cycle;Signal;HPM_P1;HPM_P2
2023/03/13 00:01:01;;;;;;;0.00;0.00;;;8.60;91.00;;;;;;5071383;28;20051;-68
2023/03/13 00:03:28;;;;;;;4.63;0.88;;;8.60;91.10;;;;;;5085203;28;20052;-68
2023/03/13 00:05:57;;;;;;;0.00;0.00;;;8.60;91.10;;;;;;5083487;28;20047;-68
2023/03/13 00:08:24;;;;;;;0.10;0.10;;;8.60;91.10;;;;;;5054921;28;20055;-68
2023/03/13 00:10:50;;;;;;;0.00;0.00;;;8.70;91.00;;;;;;5071688;28;20059;-68
2023/03/13 00:13:16;;;;;;;0.00;0.00;;;8.70;90.90;;;;;;5071898;28;20594;-68
2023/03/13 00:15:41;;;;;;;1.58;1.48;;;8.60;91.00;;;;;;5071047;28;20083;-68
2023/03/13 00:18:07;;;;;;;0.82;0.82;;;8.60;91.20;;;;;;5080939;28;20127;-68
2023/03/13 00:20:33;;;;;;;0.00;0.00;;;8.60;91.20;;;;;;5090350;28;20161;-68
2023/03/13 00:22:58;;;;;;;0.20;0.20;;;8.60;91.20;;;;;;5073172;28;20389;-67
2023/03/13 00:25:24;;;;;;;0.00;0.00;;;8.60;91.20;;;;;;5083401;28;20055;-68
2023/03/13 00:27:49;;;;;;;0.00;0.00;;;8.60;91.20;;;;;;5082455;28;20048;-68
2023/03/13 00:30:15;;;;;;;0.00;0.00;;;8.60;91.10;;;;;;5071230;28;20044;-67
2023/03/13 00:32:45;;;;;;;0.45;0.45;;;8.60;91.10;;;;;;5079251;28;20123;-68
2023/03/13 00:35:12;;;;;;;0.00;0.00;;;8.60;91.10;;;;;;5080556;28;20094;-68
2023/03/13 00:37:38;;;;;;;0.00;0.00;;;8.70;91.30;;;;;;5080520;28;20040;-68
2023/03/13 00:40:04;;;;;;;0.10;0.10;;;8.60;91.40;;;;;;5060719;28;20050;-68
2023/03/13 00:42:30;;;;;;;1.75;1.48;;;8.70;91.60;;;;;;5084833;28;20036;-68
2023/03/13 00:44:56;;;;;;;0.10;0.10;;;8.70;91.70;;;;;;5088837;28;20044;-68
2023/03/13 00:47:22;;;;;;;1.55;1.30;;;8.80;91.80;;;;;;5086573;28;20042;-68
2023/03/13 00:49:47;;;;;;;0.05;0.05;;;8.80;91.90;;;;;;5074358;28;20048;-68
2023/03/13 00:52:13;;;;;;;0.00;0.00;;;8.80;91.70;;;;;;5080873;28;20044;-68
2023/03/13 00:54:39;;;;;;;0.00;0.00;;;8.80;91.60;;;;;;5071256;28;20048;-68
2023/03/13 00:57:04;;;;;;;0.30;0.30;;;8.80;91.80;;;;;;5074715;28;20048;-68
2023/03/13 00:59:30;;;;;;;0.10;0.10;;;8.80;91.70;;;;;;5070460;28;20135;-68
2023/03/13 01:01:55;;;;;;;1.25;1.17;;;8.80;91.70;;;;;;5075675;28;20036;-68
2023/03/13 01:04:21;;;;;;;0.20;0.20;;;8.80;91.70;;;;;;5077620;28;20431;-68
2023/03/13 01:06:47;;;;;;;0.10;0.10;;;8.80;91.80;;;;;;5089364;28;20126;-68
2023/03/13 01:09:15;;;;;;;0.00;0.00;;;8.90;91.70;;;;;;5072220;28;20136;-68
2023/03/13 01:11:41;;;;;;;0.00;0.00;;;8.80;91.70;;;;;;5072055;28;20127;-68
2023/03/13 01:14:13;;;;;;;0.00;0.00;;;8.80;91.70;;;;;;5087068;28;20047;-68
2023/03/13 01:16:40;;;;;;;0.10;0.10;;;8.80;91.70;;;;;;5073511;28;20048;-68
2023/03/13 01:19:09;;;;;;;0.00;0.00;;;8.80;91.70;;;;;;5077681;28;20037;-68
2023/03/13 01:21:35;;;;;;;0.00;0.00;;;8.80;91.70;;;;;;5074311;28;20083;-68
2023/03/13 01:24:00;;;;;;;0.30;0.30;;;8.80;91.80;;;;;;5070439;28;20072;-68
2023/03/13 01:26:26;;;;;;;0.10;0.10;;;8.80;91.70;;;;;;5063720;28;20059;-68
2023/03/13 01:28:52;;;;;;;0.00;0.00;;;8.80;91.70;;;;;;5067103;28;20119;-68
2023/03/13 01:31:21;;;;;;;1.65;1.55;;;8.80;91.90;;;;;;5073376;28;20095;-68
2023/03/13 01:33:49;;;;;;;0.10;0.10;;;8.80;91.80;;;;;;5082806;28;20040;-68
2023/03/13 01:36:16;;;;;;;0.03;0.03;;;8.80;91.80;;;;;;5088128;28;20543;-69
2023/03/13 01:38:42;;;;;;;0.08;0.08;;;8.80;91.80;;;;;;5077353;28;20101;-68
2023/03/13 01:41:10;;;;;;;0.00;0.00;;;8.90;91.80;;;;;;5071054;28;20076;-68
2023/03/13 01:43:39;;;;;;;0.22;0.22;;;8.80;91.90;;;;;;5078254;28;20374;-70
2023/03/13 01:46:15;;;;;;;0.00;0.00;;;8.80;92.00;;;;;;5080175;28;20668;-70
2023/03/13 01:48:49;;;;;;;0.00;0.00;;;8.80;92.20;;;;;;5086563;28;20051;-69
2023/03/13 01:51:35;;;;;;;0.70;0.40;;;8.80;92.50;;;;;;5079647;28;20059;-69
2023/03/13 01:54:16;;;;;;;0.00;0.00;;;8.70;92.50;;;;;;5071566;28;20055;-69
2023/03/13 01:56:53;;;;;;;0.30;0.30;;;8.80;92.40;;;;;;5060437;28;20052;-69
2023/03/13 01:59:24;;;;;;;0.10;0.10;;;8.80;92.30;;;;;;5074391;28;20044;-69
2023/03/13 02:01:53;;;;;;;0.17;0.17;;;8.70;92.30;;;;;;5084667;28;20040;-69
2023/03/13 02:04:20;;;;;;;0.00;0.00;;;8.60;92.30;;;;;;5089134;28;20048;-69
2023/03/13 02:06:49;;;;;;;0.00;0.00;;;8.70;92.40;;;;;;5073584;28;20071;-69
2023/03/13 02:09:18;;;;;;;0.00;0.00;;;8.70;92.40;;;;;;5051629;28;20456;-69
2023/03/13 02:12:05;;;;;;;0.00;0.00;;;8.70;92.60;;;;;;5068676;28;20555;-69
2023/03/13 02:14:34;;;;;;;0.10;0.10;;;8.70;92.60;;;;;;5051375;28;20094;-69
2023/03/13 02:17:01;;;;;;;0.20;0.20;;;8.70;92.70;;;;;;5078652;28;20070;-69
2023/03/13 02:19:50;;;;;;;0.60;0.60;;;8.80;92.80;;;;;;5056781;28;20040;-69
2023/03/13 02:22:23;;;;;;;0.00;0.00;;;8.80;92.70;;;;;;5084344;28;20507;-68
2023/03/13 02:24:52;;;;;;;0.10;0.10;;;8.80;92.70;;;;;;5053935;28;20105;-68
2023/03/13 02:27:17;;;;;;;0.00;0.00;;;8.80;92.70;;;;;;5068819;28;20071;-69
2023/03/13 02:29:43;;;;;;;0.00;0.00;;;8.80;93.00;;;;;;5072234;28;20044;-69
2023/03/13 02:32:09;;;;;;;4.40;2.67;;;8.80;92.90;;;;;;5077512;28;20044;-69
2023/03/13 02:34:37;;;;;;;0.00;0.00;;;8.80;92.90;;;;;;5088741;28;20044;-68
2023/03/13 02:37:06;;;;;;;0.00;0.00;;;8.90;92.90;;;;;;5075754;28;20106;-69
2023/03/13 02:39:33;;;;;;;2.45;2.25;;;8.80;92.90;;;;;;5071066;28;20110;-69
2023/03/13 02:42:01;;;;;;;0.00;0.00;;;8.90;92.80;;;;;;5076583;28;20044;-69
2023/03/13 02:44:27;;;;;;;0.00;0.00;;;8.90;92.90;;;;;;5068444;28;20048;-69
2023/03/13 02:46:52;;;;;;;0.20;0.20;;;8.90;93.10;;;;;;5070497;28;20044;-69
2023/03/13 02:49:28;;;;;;;0.00;0.00;;;8.90;93.10;;;;;;5068917;28;20043;-69
2023/03/13 02:51:58;;;;;;;0.00;0.00;;;8.90;93.10;;;;;;5075723;28;20163;-69
2023/03/13 02:54:32;;;;;;;0.00;0.00;;;8.90;93.20;;;;;;5051149;28;20472;-69
2023/03/13 02:57:01;;;;;;;0.20;0.20;;;8.90;93.20;;;;;;5084948;28;20047;-69
2023/03/13 02:59:26;;;;;;;0.00;0.00;;;8.90;93.30;;;;;;5052925;28;20055;-69
2023/03/13 03:01:53;;;;;;;0.00;0.00;;;9.00;93.20;;;;;;5063105;28;20115;-69
2023/03/13 03:04:20;;;;;;;0.10;0.10;;;9.00;93.30;;;;;;5068538;28;20044;-69
2023/03/13 03:06:45;;;;;;;0.00;0.00;;;8.90;93.40;;;;;;5056362;28;20047;-69
2023/03/13 03:09:11;;;;;;;0.32;0.32;;;8.90;93.40;;;;;;5087015;28;20056;-69
2023/03/13 03:11:40;;;;;;;0.00;0.00;;;9.00;93.50;;;;;;5086094;28;20025;-69
2023/03/13 03:14:06;;;;;;;0.10;0.10;;;9.00;93.60;;;;;;5088568;28;20048;-69
2023/03/13 03:16:31;;;;;;;0.00;0.00;;;9.10;93.60;;;;;;5067515;28;20055;-69
2023/03/13 03:18:57;;;;;;;0.00;0.00;;;9.10;93.80;;;;;;5050768;28;20119;-69
2023/03/13 03:21:23;;;;;;;0.00;0.00;;;9.20;93.90;;;;;;5075796;28;20037;-69
2023/03/13 03:23:49;;;;;;;0.00;0.00;;;9.30;93.80;;;;;;5070143;28;20041;-69
2023/03/13 03:26:15;;;;;;;0.00;0.00;;;9.20;93.80;;;;;;5050651;28;20391;-69
2023/03/13 03:28:40;;;;;;;0.00;0.00;;;9.40;94.00;;;;;;5060136;28;20043;-68
2023/03/13 03:31:08;;;;;;;0.00;0.00;;;9.50;94.00;;;;;;5062567;28;20571;-68
2023/03/13 03:33:33;;;;;;;0.00;0.00;;;9.60;94.30;;;;;;5053344;28;20045;-68
2023/03/13 03:36:06;;;;;;;0.00;0.00;;;9.70;94.30;;;;;;5051171;28;20374;-69
2023/03/13 03:38:32;;;;;;;0.00;0.00;;;9.60;94.20;;;;;;5057690;28;20036;-68
2023/03/13 03:40:57;;;;;;;0.00;0.00;;;9.80;94.30;;;;;;5058652;28;20037;-69
2023/03/13 03:43:23;;;;;;;0.00;0.00;;;9.90;94.40;;;;;;5067006;28;20093;-69
2023/03/13 03:45:49;;;;;;;0.00;0.00;;;9.90;94.20;;;;;;5071066;28;20106;-68
2023/03/13 03:48:15;;;;;;;0.10;0.10;;;9.80;94.20;;;;;;5065689;28;20084;-69
2023/03/13 03:50:40;;;;;;;0.00;0.00;;;9.80;94.20;;;;;;5068399;28;20112;-69
2023/03/13 03:53:06;;;;;;;0.00;0.00;;;9.80;94.20;;;;;;5044858;28;20143;-68
2023/03/13 03:55:32;;;;;;;0.00;0.00;;;9.80;94.50;;;;;;5070859;28;20063;-68
2023/03/13 03:57:58;;;;;;;0.00;0.00;;;9.80;94.40;;;;;;5061517;28;20033;-69
2023/03/13 04:00:24;;;;;;;0.00;0.00;;;9.70;94.40;;;;;;5069821;28;20135;-68
2023/03/13 04:02:50;;;;;;;0.00;0.00;;;9.60;94.30;;;;;;5063633;28;20041;-68
2023/03/13 04:05:15;;;;;;;0.28;0.28;;;9.60;94.40;;;;;;5051095;28;20063;-69
2023/03/13 04:07:41;;;;;;;0.10;0.10;;;9.60;94.40;;;;;;5054273;28;20044;-68
2023/03/13 04:10:07;;;;;;;0.00;0.00;;;9.60;94.40;;;;;;5050249;28;20053;-68
2023/03/13 04:12:32;;;;;;;0.00;0.00;;;9.60;94.50;;;;;;5056040;28;20508;-69
2023/03/13 04:14:58;;;;;;;0.00;0.00;;;9.60;94.40;;;;;;5058913;28;20080;-69
2023/03/13 04:17:24;;;;;;;0.00;0.00;;;9.60;94.60;;;;;;5052300;28;20036;-68
2023/03/13 04:19:49;;;;;;;0.00;0.00;;;9.60;94.60;;;;;;5069962;28;20090;-69
2023/03/13 04:22:15;;;;;;;0.47;0.47;;;9.60;94.50;;;;;;5069732;28;20044;-69
2023/03/13 04:24:40;;;;;;;0.17;0.15;;;9.70;94.60;;;;;;5051845;28;20469;-69
2023/03/13 04:27:06;;;;;;;0.13;0.13;;;9.60;94.50;;;;;;5074796;28;20043;-69
2023/03/13 04:29:32;;;;;;;0.03;0.03;;;9.70;94.80;;;;;;5089955;28;20453;-69
2023/03/13 04:31:58;;;;;;;0.00;0.00;;;9.90;94.90;;;;;;5075236;28;20093;-68
2023/03/13 04:34:23;;;;;;;0.00;0.00;;;10.10;95.00;;;;;;5071607;28;20517;-69
2023/03/13 04:36:49;;;;;;;0.00;0.00;;;10.10;94.90;;;;;;5070486;28;20036;-69
2023/03/13 04:39:15;;;;;;;4.20;1.70;;;10.20;95.00;;;;;;5071549;28;20405;-68
2023/03/13 04:41:40;;;;;;;0.00;0.00;;;10.40;95.00;;;;;;5035703;28;20037;-70
2023/03/13 04:44:06;;;;;;;0.00;0.00;;;10.50;94.80;;;;;;5071395;28;20048;-68
2023/03/13 04:46:32;;;;;;;0.03;0.03;;;10.60;94.70;;;;;;5060007;28;20044;-69
2023/03/13 04:48:58;;;;;;;0.00;0.00;;;10.60;94.70;;;;;;5078830;28;20044;-69
2023/03/13 04:51:23;;;;;;;5.05;0.73;;;10.60;94.60;;;;;;5070488;28;20658;-69
2023/03/13 04:53:49;;;;;;;22.08;2.30;;;10.60;94.60;;;;;;5077562;28;20036;-68
2023/03/13 04:56:23;;;;;;;0.00;0.00;;;10.60;94.40;;;;;;5090432;28;20036;-69
2023/03/13 04:58:49;;;;;;;0.60;0.60;;;10.70;94.30;;;;;;5084454;28;20478;-69
2023/03/13 05:01:14;;;;;;;0.38;0.38;;;10.70;94.20;;;;;;5081328;28;20057;-69
2023/03/13 05:03:40;;;;;;;0.10;0.10;;;10.80;94.10;;;;;;5073803;28;20048;-68
2023/03/13 05:06:06;;;;;;;0.00;0.00;;;10.90;94.00;;;;;;5070010;28;20207;-69
2023/03/13 05:08:31;;;;;;;3.20;2.92;;;10.90;93.80;;;;;;5077643;28;20043;-69
2023/03/13 05:10:57;;;;;;;0.32;0.32;;;10.90;93.70;;;;;;5089736;28;20055;-69
2023/03/13 05:13:23;;;;;;;0.00;0.00;;;10.90;93.50;;;;;;5086389;28;20743;-68
2023/03/13 05:15:48;;;;;;;1.75;1.55;;;11.00;93.60;;;;;;5069876;28;20044;-68
2023/03/13 05:18:14;;;;;;;0.00;0.00;;;11.00;93.40;;;;;;5073473;28;20159;-69
2023/03/13 05:20:40;;;;;;;0.10;0.10;;;11.00;93.30;;;;;;5069763;28;20504;-68
2023/03/13 05:23:05;;;;;;;0.00;0.00;;;11.10;93.30;;;;;;5070866;28;20082;-69
2023/03/13 05:25:31;;;;;;;0.00;0.00;;;11.00;93.40;;;;;;5073441;28;20060;-68
2023/03/13 05:27:56;;;;;;;0.00;0.00;;;11.00;93.40;;;;;;5072496;28;20059;-69
2023/03/13 05:30:22;;;;;;;0.10;0.10;;;11.00;93.30;;;;;;5072697;28;20551;-69
2023/03/13 05:32:48;;;;;;;0.00;0.00;;;11.00;93.30;;;;;;5036286;28;20052;-68
2023/03/13 05:35:13;;;;;;;0.00;0.00;;;11.10;93.10;;;;;;5083392;28;20040;-68
2023/03/13 05:37:39;;;;;;;1.17;1.08;;;11.10;93.10;;;;;;5084774;28;20185;-68
2023/03/13 05:40:05;;;;;;;2.25;2.10;;;11.10;93.00;;;;;;5070835;28;20122;-69
2023/03/13 05:42:31;;;;;;;1.00;1.00;;;11.10;93.10;;;;;;5076529;28;20109;-69
2023/03/13 05:44:56;;;;;;;0.10;0.10;;;11.10;93.00;;;;;;5085378;28;20111;-69
2023/03/13 05:47:22;;;;;;;9.73;2.33;;;11.20;92.80;;;;;;5082458;28;20037;-69
2023/03/13 05:49:48;;;;;;;0.00;0.00;;;11.20;93.00;;;;;;5070276;28;20078;-69
2023/03/13 05:52:13;;;;;;;0.00;0.00;;;11.20;93.00;;;;;;5068638;28;20040;-69
2023/03/13 05:54:39;;;;;;;0.00;0.00;;;11.20;92.80;;;;;;5037619;28;20387;-68
2023/03/13 05:57:04;;;;;;;0.00;0.00;;;11.30;92.70;;;;;;5068448;28;20047;-68
2023/03/13 05:59:30;;;;;;;0.32;0.32;;;11.30;92.60;;;;;;5082654;28;20498;-68
2023/03/13 06:01:56;;;;;;;0.50;0.50;;;11.30;92.40;;;;;;5084950;28;20386;-69
2023/03/13 06:04:21;;;;;;;3.00;2.65;;;11.30;92.30;;;;;;5078302;28;20040;-68
2023/03/13 06:06:47;;;;;;;0.22;0.22;;;11.30;92.00;;;;;;5087546;28;20047;-69
2023/03/13 06:09:12;;;;;;;0.05;0.05;;;11.40;91.80;;;;;;5073712;28;20233;-68
2023/03/13 06:11:38;;;;;;;0.10;0.10;;;11.30;91.60;;;;;;5060429;28;20047;-69
2023/03/13 06:14:04;;;;;;;0.30;0.30;;;11.30;91.40;;;;;;5050678;28;20417;-68
2023/03/13 06:16:29;;;;;;;0.00;0.00;;;11.40;91.10;;;;;;5079106;28;20046;-69
2023/03/13 06:18:55;;;;;;;0.00;0.00;;;11.50;90.50;;;;;;5073863;28;20041;-68
2023/03/13 06:21:20;;;;;;;0.30;0.30;;;11.50;90.30;;;;;;5049737;28;20082;-68
2023/03/13 06:23:46;;;;;;;0.00;0.00;;;11.60;90.20;;;;;;5071741;28;20523;-68
2023/03/13 06:26:11;;;;;;;0.08;0.08;;;11.60;89.80;;;;;;5072237;28;20061;-68
2023/03/13 06:28:37;;;;;;;0.40;0.40;;;11.60;89.60;;;;;;5077465;28;20032;-68
2023/03/13 06:31:04;;;;;;;0.00;0.00;;;11.70;89.60;;;;;;5079548;28;20093;-68
2023/03/13 06:33:30;;;;;;;0.00;0.00;;;11.60;89.50;;;;;;5067068;28;20186;-69
2023/03/13 06:35:56;;;;;;;0.00;0.00;;;11.60;89.40;;;;;;5066771;28;20131;-67
2023/03/13 06:38:23;;;;;;;0.05;0.05;;;11.70;89.40;;;;;;5066919;28;20390;-67
2023/03/13 06:40:48;;;;;;;1.30;1.20;;;11.60;89.70;;;;;;5032991;28;20044;-67
2023/03/13 06:43:14;;;;;;;0.00;0.00;;;11.70;89.50;;;;;;5066945;28;20045;-68
2023/03/13 06:45:39;;;;;;;0.45;0.45;;;11.60;89.50;;;;;;5050263;28;20033;-69
2023/03/13 06:48:05;;;;;;;2.58;0.82;;;11.60;89.50;;;;;;5069132;28;20093;-69
2023/03/13 06:50:31;;;;;;;0.00;0.00;;;11.60;89.20;;;;;;5069552;28;20044;-71
2023/03/13 06:52:56;;;;;;;0.00;0.00;;;11.60;89.30;;;;;;5071439;28;20032;-68
2023/03/13 06:55:23;;;;;;;0.00;0.00;;;11.70;89.30;;;;;;5066831;28;20040;-68
2023/03/13 06:57:50;;;;;;;0.03;0.03;;;11.70;89.10;;;;;;5062799;28;20064;-70
2023/03/13 07:00:16;;;;;;;14.18;1.55;;;11.60;89.20;;;;;;5071920;28;20044;-70
2023/03/13 07:02:42;;;;;;;0.00;0.00;;;11.70;89.10;;;;;;5066532;28;20049;-70
2023/03/13 07:05:07;;;;;;;0.00;0.00;;;11.70;88.90;;;;;;5072902;28;20049;-70
2023/03/13 07:07:33;;;;;;;0.00;0.00;;;11.70;88.90;;;;;;5055880;28;20044;-69
2023/03/13 07:09:59;;;;;;;0.00;0.00;;;11.70;89.20;;;;;;5071004;28;20370;-71
2023/03/13 07:12:24;;;;;;;0.28;0.28;;;11.70;89.10;;;;;;5074177;28;20037;-70
2023/03/13 07:14:50;;;;;;;0.00;0.00;;;11.60;89.40;;;;;;5073764;28;20386;-69
2023/03/13 07:17:15;;;;;;;0.00;0.00;;;11.70;89.50;;;;;;5086638;28;20127;-70
2023/03/13 07:19:41;;;;;;;0.00;0.00;;;11.70;89.00;;;;;;5058247;28;20392;-66
2023/03/13 07:22:07;;;;;;;0.00;0.00;;;11.80;89.10;;;;;;5076153;28;20044;-66
2023/03/13 07:24:32;;;;;;;0.68;0.68;;;11.60;89.30;;;;;;5079822;28;20052;-66
2023/03/13 07:26:58;;;;;;;1.65;1.55;;;11.70;89.50;;;;;;5072162;28;20060;-65
2023/03/13 07:29:24;;;;;;;0.00;0.00;;;11.70;89.50;;;;;;5072270;28;20051;-66
2023/03/13 07:31:49;;;;;;;0.35;0.35;;;11.70;89.70;;;;;;5081790;28;20039;-66
2023/03/13 07:34:15;;;;;;;0.00;0.00;;;11.60;89.80;;;;;;5074527;28;20056;-66
2023/03/13 07:36:41;;;;;;;0.00;0.00;;;11.60;89.90;;;;;;5084020;28;20456;-65
2023/03/13 07:39:07;;;;;;;0.08;0.08;;;11.60;89.90;;;;;;5071289;28;20048;-66
2023/03/13 07:41:33;;;;;;;0.10;0.10;;;11.60;89.90;;;;;;5076465;28;20047;-66
2023/03/13 07:43:58;;;;;;;0.10;0.10;;;11.60;90.10;;;;;;5075003;28;20048;-65
2023/03/13 07:46:24;;;;;;;0.60;0.60;;;11.60;90.10;;;;;;5073469;28;20040;-66
2023/03/13 07:48:51;;;;;;;0.00;0.00;;;11.60;90.10;;;;;;5090987;28;20058;-66
2023/03/13 07:51:19;;;;;;;0.00;0.00;;;11.60;89.90;;;;;;5079788;28;20057;-66
2023/03/13 07:53:48;;;;;;;0.30;0.30;;;11.60;89.90;;;;;;5069558;28;20117;-67
2023/03/13 07:56:19;;;;;;;0.00;0.00;;;11.50;89.70;;;;;;5082934;28;20069;-67
2023/03/13 07:58:45;;;;;;;0.00;0.00;;;11.60;89.70;;;;;;5085350;28;20611;-67
2023/03/13 08:01:15;;;;;;;0.00;0.00;;;11.60;89.70;;;;;;5055553;28;20049;-66
2023/03/13 08:03:40;;;;;;;0.22;0.22;;;11.50;89.60;;;;;;5044077;28;20628;-66
2023/03/13 08:06:15;;;;;;;0.75;0.75;;;11.60;89.30;;;;;;5064683;28;20035;-66
2023/03/13 08:08:41;;;;;;;1.13;0.98;;;11.60;89.40;;;;;;5062703;28;20036;-66
2023/03/13 08:11:19;;;;;;;0.00;0.00;;;11.60;89.40;;;;;;5065225;28;20138;-66
2023/03/13 08:13:45;;;;;;;0.10;0.10;;;11.70;89.50;;;;;;5067238;28;20716;-66
2023/03/13 08:16:20;;;;;;;0.00;0.00;;;11.70;89.60;;;;;;5066041;28;20736;-66
2023/03/13 08:18:49;;;;;;;0.00;0.00;;;11.70;89.60;;;;;;5066534;28;20064;-67
2023/03/13 08:21:20;;;;;;;0.00;0.00;;;11.80;89.50;;;;;;5065821;28;20113;-66
2023/03/13 08:23:46;;;;;;;0.00;0.00;;;11.90;89.20;;;;;;5069034;28;20040;-66
2023/03/13 08:26:18;;;;;;;0.10;0.10;;;11.90;89.00;;;;;;5045306;28;20413;-66
2023/03/13 08:28:45;;;;;;;0.00;0.00;;;12.00;88.70;;;;;;5046603;28;20041;-66
2023/03/13 08:31:18;;;;;;;0.68;0.28;;;12.10;88.10;;;;;;5044147;28;20102;-67
2023/03/13 08:33:45;;;;;;;0.35;0.35;;;12.00;88.00;;;;;;5048123;28;20052;-66
2023/03/13 08:36:12;;;;;;;0.30;0.30;;;12.00;87.90;;;;;;5048441;28;20456;-66
2023/03/13 08:38:40;;;;;;;0.00;0.00;;;12.10;87.90;;;;;;5048488;28;20048;-66
2023/03/13 08:41:07;;;;;;;1.95;1.85;;;12.10;87.70;;;;;;5047996;28;20040;-66
2023/03/13 08:43:33;;;;;;;0.38;0.38;;;12.10;87.90;;;;;;5048026;28;20124;-66
2023/03/13 08:45:58;;;;;;;0.00;0.00;;;12.10;88.10;;;;;;5046533;28;20124;-66
2023/03/13 08:48:24;;;;;;;0.00;0.00;;;12.20;88.00;;;;;;5046360;28;20079;-66
2023/03/13 08:51:06;;;;;;;0.00;0.00;;;12.20;87.70;;;;;;5031063;28;20398;-67
2023/03/13 08:53:33;;;;;;;0.00;0.00;;;12.20;87.70;;;;;;5046366;28;20064;-67
2023/03/13 08:55:59;;;;;;;0.13;0.13;;;12.20;87.60;;;;;;5041391;28;20048;-67
2023/03/13 08:58:25;;;;;;;0.00;0.00;;;12.20;87.40;;;;;;5045577;28;20045;-66
2023/03/13 09:00:50;;;;;;;0.47;0.47;;;12.10;87.10;;;;;;5043809;28;20112;-67
2023/03/13 09:03:16;;;;;;;0.25;0.25;;;12.10;87.30;;;;;;5027337;28;20107;-67
2023/03/13 09:05:42;;;;;;;0.03;0.03;;;12.10;86.80;;;;;;5045201;28;20048;-67
2023/03/13 09:08:08;;;;;;;0.00;0.00;;;12.20;87.00;;;;;;5044863;28;20099;-66
2023/03/13 09:10:34;;;;;;;1.30;1.27;;;12.20;86.80;;;;;;5042161;28;20045;-67
2023/03/13 09:13:00;;;;;;;0.00;0.00;;;12.20;86.70;;;;;;5046201;28;20573;-68
2023/03/13 09:15:26;;;;;;;0.00;0.00;;;12.20;86.30;;;;;;5049558;28;20044;-68
2023/03/13 09:17:52;;;;;;;0.00;0.00;;;12.20;86.40;;;;;;5048863;28;20406;-68
2023/03/13 09:20:18;;;;;;;0.00;0.00;;;12.20;86.70;;;;;;5047591;28;20880;-67
2023/03/13 09:22:44;;;;;;;0.35;0.35;;;12.10;87.10;;;;;;5046579;28;20440;-68
2023/03/13 09:25:11;;;;;;;0.13;0.13;;;12.00;87.60;;;;;;5048894;28;20501;-68
2023/03/13 09:27:37;;;;;;;0.00;0.00;;;11.80;88.70;;;;;;5068009;28;20048;-67
2023/03/13 09:30:03;;;;;;;0.00;0.00;;;11.90;88.90;;;;;;5067495;28;20115;-66
2023/03/13 09:32:29;;;;;;;0.20;0.20;;;11.80;88.90;;;;;;5070513;28;20043;-67
2023/03/13 09:34:55;;;;;;;0.03;0.03;;;11.80;88.70;;;;;;5068291;28;20032;-66
2023/03/13 09:37:21;;;;;;;0.00;0.00;;;11.70;88.30;;;;;;5065563;28;20178;-66
2023/03/13 09:39:48;;;;;;;0.00;0.00;;;11.80;88.10;;;;;;5046438;28;20045;-67
2023/03/13 09:42:17;;;;;;;0.00;0.00;;;11.80;87.70;;;;;;5067439;28;20052;-69
2023/03/13 09:44:53;;;;;;;0.35;0.35;;;12.00;87.40;;;;;;5066074;28;20075;-67
2023/03/13 09:47:29;;;;;;;1.00;0.90;;;12.10;86.10;;;;;;5049957;28;20048;-67
2023/03/13 09:50:01;;;;;;;0.00;0.00;;;12.30;85.30;;;;;;5065528;28;20101;-67
2023/03/13 09:52:32;;;;;;;0.00;0.00;;;12.30;85.00;;;;;;5066944;28;20400;-68
2023/03/13 09:55:09;;;;;;;0.00;0.00;;;12.40;84.00;;;;;;5065329;28;20081;-68
2023/03/13 09:57:48;;;;;;;0.00;0.00;;;12.60;82.80;;;;;;5067516;28;20068;-68
2023/03/13 10:00:23;;;;;;;0.00;0.00;;;12.50;81.70;;;;;;5067654;28;20127;-67
2023/03/13 10:03:10;;;;;;;0.00;0.00;;;12.60;81.10;;;;;;5065554;28;20048;-68
2023/03/13 10:05:48;;;;;;;0.00;0.00;;;12.60;82.10;;;;;;5031536;28;20032;-67
2023/03/13 10:08:29;;;;;;;0.00;0.00;;;12.70;82.20;;;;;;5048696;28;20074;-68
2023/03/13 10:11:10;;;;;;;0.00;0.00;;;12.90;81.40;;;;;;5065738;28;20054;-68
2023/03/13 10:13:48;;;;;;;0.00;0.00;;;12.90;81.40;;;;;;5046132;28;20076;-67
2023/03/13 10:16:23;;;;;;;8.10;1.10;;;13.00;80.30;;;;;;5065025;28;20513;-65
2023/03/13 10:18:54;;;;;;;0.00;0.00;;;13.00;80.20;;;;;;5064924;28;20416;-67
2023/03/13 10:21:22;;;;;;;0.00;0.00;;;13.00;79.20;;;;;;5066088;28;20115;-68
2023/03/13 10:23:56;;;;;;;0.10;0.10;;;12.90;78.60;;;;;;5066175;28;20050;-67
2023/03/13 10:26:28;;;;;;;0.00;0.00;;;13.00;78.70;;;;;;5064799;28;20508;-67
2023/03/13 10:28:55;;;;;;;0.00;0.00;;;13.00;77.60;;;;;;5065573;28;20404;-67
2023/03/13 10:31:28;;;;;;;0.00;0.00;;;13.00;77.00;;;;;;5067627;28;20128;-67
2023/03/13 10:34:04;;;;;;;0.00;0.00;;;13.00;77.40;;;;;;5069195;28;20048;-68
2023/03/13 10:36:39;;;;;;;0.00;0.00;;;13.10;77.00;;;;;;5069523;28;20056;-65
2023/03/13 10:39:07;;;;;;;0.63;0.63;;;13.10;77.20;;;;;;5070575;28;20071;-68
2023/03/13 10:41:35;;;;;;;0.30;0.30;;;13.10;77.60;;;;;;5071268;28;20691;-67
2023/03/13 10:44:14;;;;;;;0.00;0.00;;;13.10;77.40;;;;;;5071190;28;20036;-65
2023/03/13 10:46:42;;;;;;;0.10;0.10;;;13.20;77.10;;;;;;5070096;28;20127;-68
2023/03/13 10:49:22;;;;;;;0.28;0.28;;;13.10;76.80;;;;;;5050596;28;20048;-67
2023/03/13 10:51:54;;;;;;;0.00;0.00;;;13.20;76.20;;;;;;5069960;28;20036;-67
2023/03/13 10:54:25;;;;;;;1.27;1.17;;;13.20;76.40;;;;;;5070533;28;20036;-67
2023/03/13 10:56:54;;;;;;;9.02;2.90;;;13.30;76.80;;;;;;5071079;28;20103;-66
2023/03/13 10:59:26;;;;;;;0.00;0.00;;;13.30;77.10;;;;;;5070680;28;20101;-67
2023/03/13 11:01:59;;;;;;;0.03;0.03;;;13.30;76.80;;;;;;5035584;28;20485;-67
2023/03/13 11:04:34;;;;;;;0.10;0.10;;;13.30;76.60;;;;;;5067480;28;20045;-66
2023/03/13 11:07:05;;;;;;;0.00;0.00;;;13.50;75.30;;;;;;5053257;28;20055;-67
2023/03/13 11:09:32;;;;;;;0.47;0.47;;;13.60;74.70;;;;;;5071388;28;20922;-66
2023/03/13 11:12:18;;;;;;;0.85;0.85;;;13.60;74.10;;;;;;5070190;28;20129;-66
2023/03/13 11:14:45;;;;;;;0.00;0.00;;;13.70;74.20;;;;;;5070231;28;20085;-67
2023/03/13 11:17:10;;;;;;;0.00;0.00;;;13.70;74.60;;;;;;5070154;28;20047;-67
2023/03/13 11:20:11;;;;;;;0.57;0.57;;;13.70;74.50;;;;;;5070259;28;20052;-66
2023/03/13 11:22:49;;;;;;;0.00;0.00;;;13.60;74.40;;;;;;5070157;28;20119;-67
2023/03/13 11:25:39;;;;;;;0.32;0.32;;;13.70;74.20;;;;;;5069069;28;20109;-67
2023/03/13 11:28:25;;;;;;;0.00;0.00;;;13.70;72.80;;;;;;5038593;28;20616;-66
2023/03/13 11:31:12;;;;;;;0.00;0.00;;;13.70;71.50;;;;;;5069193;28;20040;-66
2023/03/13 11:33:39;;;;;;;0.00;0.00;;;13.80;71.80;;;;;;5068373;28;20071;-66
2023/03/13 11:36:36;;;;;;;0.80;0.80;;;13.90;70.10;;;;;;5069131;28;20044;-67
2023/03/13 11:39:34;;;;;;;0.25;0.25;;;13.80;70.70;;;;;;5069660;28;20075;-67
2023/03/13 11:42:23;;;;;;;0.00;0.00;;;13.80;70.30;;;;;;4987977;28;20139;-66
2023/03/13 11:45:01;;;;;;;0.00;0.00;;;13.70;71.00;;;;;;5066296;28;20056;-67
2023/03/13 11:47:35;;;;;;;1.13;1.02;;;13.70;70.40;;;;;;5053332;28;20545;-66
2023/03/13 11:50:38;;;;;;;0.00;0.00;;;13.70;71.20;;;;;;5068964;28;20049;-66
2023/03/13 11:53:42;;;;;;;0.38;0.38;;;13.80;71.40;;;;;;5068605;28;20041;-67
2023/03/13 11:56:23;;;;;;;4.28;0.50;;;13.80;71.20;;;;;;5065936;28;20124;-67
2023/03/13 11:58:57;;;;;;;0.05;0.05;;;13.80;70.60;;;;;;5052085;28;20110;-66
2023/03/13 12:01:27;;;;;;;0.00;0.00;;;13.70;70.50;;;;;;5051774;28;20545;-67
2023/03/13 12:03:55;;;;;;;0.00;0.00;;;13.80;71.10;;;;;;5067305;28;20044;-66
2023/03/13 12:06:39;;;;;;;0.50;0.50;;;13.90;69.60;;;;;;5069006;28;20048;-66
2023/03/13 12:09:13;;;;;;;0.00;0.00;;;14.00;69.90;;;;;;5065475;28;20037;-66
2023/03/13 12:12:02;;;;;;;0.15;0.15;;;14.00;70.00;;;;;;5067350;28;20045;-64
2023/03/13 12:14:49;;;;;;;0.00;0.00;;;14.00;69.40;;;;;;5069736;28;20055;-65
2023/03/13 12:17:32;;;;;;;0.32;0.32;;;13.80;69.50;;;;;;5068455;28;20051;-65
2023/03/13 12:20:22;;;;;;;19.67;2.28;;;13.80;69.70;;;;;;5051347;28;20052;-65
2023/03/13 12:23:16;;;;;;;0.20;0.20;;;13.70;70.30;;;;;;5066574;28;20079;-65
2023/03/13 12:26:09;;;;;;;0.10;0.10;;;13.80;70.80;;;;;;5068605;28;20521;-65
2023/03/13 12:29:00;;;;;;;0.13;0.13;;;13.80;71.10;;;;;;5049844;28;20048;-65
2023/03/13 12:31:35;;;;;;;0.00;0.00;;;13.60;70.60;;;;;;5048504;28;20046;-65
2023/03/13 12:34:23;;;;;;;0.65;0.63;;;13.60;70.70;;;;;;5067248;28;20048;-66
2023/03/13 12:36:56;;;;;;;0.22;0.22;;;13.50;70.30;;;;;;5066819;28;20047;-65
2023/03/13 12:39:33;;;;;;;0.77;0.73;;;13.60;70.10;;;;;;5067454;28;20119;-65
2023/03/13 12:42:29;;;;;;;0.00;0.00;;;13.60;69.20;;;;;;5069163;28;21263;-65
2023/03/13 12:44:56;;;;;;;0.55;0.55;;;13.60;69.80;;;;;;5068425;28;20049;-65
2023/03/13 12:47:31;;;;;;;0.57;0.57;;;13.60;69.30;;;;;;5051018;28;20051;-66
2023/03/13 12:50:02;;;;;;;0.00;0.00;;;13.60;69.00;;;;;;5066458;28;20037;-65
2023/03/13 12:52:40;;;;;;;1.30;1.25;;;13.90;69.00;;;;;;5064628;28;20506;-65
2023/03/13 12:55:30;;;;;;;0.00;0.00;;;14.00;68.00;;;;;;5067717;28;20418;-66
2023/03/13 12:58:10;;;;;;;0.03;0.03;;;13.90;67.70;;;;;;5065767;28;20040;-66
2023/03/13 13:00:39;;;;;;;0.25;0.25;;;14.00;67.70;;;;;;5050146;28;20045;-66
2023/03/13 13:03:35;;;;;;;0.20;0.20;;;13.90;67.60;;;;;;5067802;28;20049;-66